sensor_id;sensor_type;location;lat;lon;timestamp;P1;durP1;ratioP1;P2;durP2;ratioP2
2866;SDS011;1441;48.886;8.728;2024-01-15T00:01:53;24.43;;;10.10;;
2866;SDS011;1441;48.886;8.728;2024-01-15T00:04:18;18.50;;;8.10;;
2866;SDS011;1441;48.886;8.728;2024-01-15T00:06:44;20.47;;;8.63;;
2866;SDS011;1441;48.886;8.728;2024-01-15T00:09:09;18.70;;;8.40;;
2866;SDS011;1441;48.886;8.728;2024-01-15T00:11:35;19.37;;;8.33;;
2866;SDS011;1441;48.886;8.728;2024-01-15T00:14:01;20.80;;;8.50;;
2866;SDS011;1441;48.886;8.728;2024-01-15T00:16:26;25.40;;;10.50;;
2866;SDS011;1441;48.886;8.728;2024-01-15T00:18:52;18.23;;;7.50;;
2866;SDS011;1441;48.886;8.728;2024-01-15T00:21:17;22.13;;;9.30;;
2866;SDS011;1441;48.886;8.728;2024-01-15T00:23:43;25.97;;;9.93;;
2866;SDS011;1441;48.886;8.728;2024-01-15T00:26:11;24.53;;;9.07;;
2866;SDS011;1441;48.886;8.728;2024-01-15T00:28:37;21.70;;;9.07;;
2866;SDS011;1441;48.886;8.728;2024-01-15T00:31:04;22.90;;;9.13;;
2866;SDS011;1441;48.886;8.728;2024-01-15T00:33:30;26.77;;;9.30;;
2866;SDS011;1441;48.886;8.728;2024-01-15T00:35:56;21.37;;;10.37;;
2866;SDS011;1441;48.886;8.728;2024-01-15T00:38:22;23.23;;;8.87;;
2866;SDS011;1441;48.886;8.728;2024-01-15T00:40:47;22.40;;;9.10;;
2866;SDS011;1441;48.886;8.728;2024-01-15T00:43:13;22.20;;;8.87;;
2866;SDS011;1441;48.886;8.728;2024-01-15T00:45:39;20.50;;;8.60;;
2866;SDS011;1441;48.886;8.728;2024-01-15T00:48:05;27.17;;;10.20;;
2866;SDS011;1441;48.886;8.728;2024-01-15T00:50:31;23.57;;;9.60;;
2866;SDS011;1441;48.886;8.728;2024-01-15T00:52:56;23.53;;;9.33;;
2866;SDS011;1441;48.886;8.728;2024-01-15T00:55:22;27.70;;;10.00;;
2866;SDS011;1441;48.886;8.728;2024-01-15T00:57:47;23.53;;;10.27;;
2866;SDS011;1441;48.886;8.728;2024-01-15T01:00:13;18.33;;;9.00;;
2866;SDS011;1441;48.886;8.728;2024-01-15T01:02:39;27.90;;;10.30;;
2866;SDS011;1441;48.886;8.728;2024-01-15T01:05:04;17.20;;;8.03;;
2866;SDS011;1441;48.886;8.728;2024-01-15T01:07:30;25.83;;;10.67;;
2866;SDS011;1441;48.886;8.728;2024-01-15T01:09:56;19.40;;;9.13;;
2866;SDS011;1441;48.886;8.728;2024-01-15T01:12:21;22.33;;;8.87;;
2866;SDS011;1441;48.886;8.728;2024-01-15T01:14:47;21.17;;;9.33;;
2866;SDS011;1441;48.886;8.728;2024-01-15T01:17:12;19.77;;;8.60;;
2866;SDS011;1441;48.886;8.728;2024-01-15T01:19:38;23.03;;;9.67;;
2866;SDS011;1441;48.886;8.728;2024-01-15T01:22:03;25.97;;;9.20;;
2866;SDS011;1441;48.886;8.728;2024-01-15T01:24:30;16.83;;;8.10;;
2866;SDS011;1441;48.886;8.728;2024-01-15T01:26:55;23.67;;;9.80;;
2866;SDS011;1441;48.886;8.728;2024-01-15T01:29:21;22.37;;;8.53;;
2866;SDS011;1441;48.886;8.728;2024-01-15T01:31:47;23.23;;;9.53;;
2866;SDS011;1441;48.886;8.728;2024-01-15T01:34:14;20.03;;;8.53;;
2866;SDS011;1441;48.886;8.728;2024-01-15T01:36:40;21.73;;;8.47;;
2866;SDS011;1441;48.886;8.728;2024-01-15T01:39:06;18.93;;;8.43;;
2866;SDS011;1441;48.886;8.728;2024-01-15T01:41:32;26.90;;;10.30;;
2866;SDS011;1441;48.886;8.728;2024-01-15T01:43:57;23.50;;;9.70;;
2866;SDS011;1441;48.886;8.728;2024-01-15T01:46:23;21.43;;;9.07;;
2866;SDS011;1441;48.886;8.728;2024-01-15T01:48:50;21.40;;;8.73;;
2866;SDS011;1441;48.886;8.728;2024-01-15T01:51:17;21.33;;;9.70;;
2866;SDS011;1441;48.886;8.728;2024-01-15T01:53:43;24.10;;;9.60;;
2866;SDS011;1441;48.886;8.728;2024-01-15T01:56:10;21.47;;;9.90;;
2866;SDS011;1441;48.886;8.728;2024-01-15T01:58:36;25.67;;;8.67;;
2866;SDS011;1441;48.886;8.728;2024-01-15T02:01:02;23.73;;;9.10;;
2866;SDS011;1441;48.886;8.728;2024-01-15T02:03:28;21.77;;;9.83;;
2866;SDS011;1441;48.886;8.728;2024-01-15T02:05:55;21.83;;;8.23;;
2866;SDS011;1441;48.886;8.728;2024-01-15T02:08:21;19.77;;;9.07;;
2866;SDS011;1441;48.886;8.728;2024-01-15T02:10:47;21.10;;;9.03;;
2866;SDS011;1441;48.886;8.728;2024-01-15T02:13:13;22.20;;;9.07;;
2866;SDS011;1441;48.886;8.728;2024-01-15T02:15:38;19.80;;;8.60;;
2866;SDS011;1441;48.886;8.728;2024-01-15T02:18:06;22.87;;;8.27;;
2866;SDS011;1441;48.886;8.728;2024-01-15T02:20:32;23.20;;;10.17;;
2866;SDS011;1441;48.886;8.728;2024-01-15T02:23:16;28.30;;;8.60;;
2866;SDS011;1441;48.886;8.728;2024-01-15T02:25:42;23.80;;;8.33;;
2866;SDS011;1441;48.886;8.728;2024-01-15T02:28:10;22.83;;;8.10;;
2866;SDS011;1441;48.886;8.728;2024-01-15T02:30:40;19.60;;;8.57;;
2866;SDS011;1441;48.886;8.728;2024-01-15T02:33:07;22.57;;;8.50;;
2866;SDS011;1441;48.886;8.728;2024-01-15T02:35:33;18.43;;;8.60;;
2866;SDS011;1441;48.886;8.728;2024-01-15T02:37:59;18.13;;;8.20;;
2866;SDS011;1441;48.886;8.728;2024-01-15T02:40:24;20.70;;;8.87;;
2866;SDS011;1441;48.886;8.728;2024-01-15T02:42:50;19.50;;;8.03;;
2866;SDS011;1441;48.886;8.728;2024-01-15T02:45:16;21.83;;;9.30;;
2866;SDS011;1441;48.886;8.728;2024-01-15T02:47:42;20.70;;;8.60;;
2866;SDS011;1441;48.886;8.728;2024-01-15T02:50:07;22.57;;;9.00;;
2866;SDS011;1441;48.886;8.728;2024-01-15T02:52:33;17.07;;;7.77;;
2866;SDS011;1441;48.886;8.728;2024-01-15T02:54:58;18.63;;;8.20;;
2866;SDS011;1441;48.886;8.728;2024-01-15T02:57:24;20.00;;;8.20;;
2866;SDS011;1441;48.886;8.728;2024-01-15T02:59:50;19.07;;;7.90;;
2866;SDS011;1441;48.886;8.728;2024-01-15T03:02:15;21.10;;;8.40;;
2866;SDS011;1441;48.886;8.728;2024-01-15T03:04:44;19.67;;;7.47;;
2866;SDS011;1441;48.886;8.728;2024-01-15T03:07:10;17.80;;;6.87;;
2866;SDS011;1441;48.886;8.728;2024-01-15T03:09:36;16.77;;;6.70;;
2866;SDS011;1441;48.886;8.728;2024-01-15T03:12:01;15.60;;;7.10;;
2866;SDS011;1441;48.886;8.728;2024-01-15T03:14:27;16.87;;;7.70;;
2866;SDS011;1441;48.886;8.728;2024-01-15T03:16:53;15.23;;;7.10;;
2866;SDS011;1441;48.886;8.728;2024-01-15T03:19:19;13.83;;;6.80;;
2866;SDS011;1441;48.886;8.728;2024-01-15T03:21:44;13.07;;;6.67;;
2866;SDS011;1441;48.886;8.728;2024-01-15T03:24:10;16.63;;;7.23;;
2866;SDS011;1441;48.886;8.728;2024-01-15T03:26:35;14.40;;;7.00;;
2866;SDS011;1441;48.886;8.728;2024-01-15T03:29:01;17.60;;;7.23;;
2866;SDS011;1441;48.886;8.728;2024-01-15T03:31:27;14.20;;;7.40;;
2866;SDS011;1441;48.886;8.728;2024-01-15T03:33:52;15.37;;;7.53;;
2866;SDS011;1441;48.886;8.728;2024-01-15T03:36:18;15.30;;;8.20;;
2866;SDS011;1441;48.886;8.728;2024-01-15T03:38:43;13.63;;;6.30;;
2866;SDS011;1441;48.886;8.728;2024-01-15T03:41:09;12.50;;;6.17;;
2866;SDS011;1441;48.886;8.728;2024-01-15T03:43:35;12.13;;;5.73;;
2866;SDS011;1441;48.886;8.728;2024-01-15T03:46:00;14.13;;;6.97;;
2866;SDS011;1441;48.886;8.728;2024-01-15T03:48:27;12.90;;;5.73;;
2866;SDS011;1441;48.886;8.728;2024-01-15T03:50:52;13.10;;;5.93;;
2866;SDS011;1441;48.886;8.728;2024-01-15T03:53:18;13.63;;;5.63;;
2866;SDS011;1441;48.886;8.728;2024-01-15T03:55:44;11.00;;;5.47;;
2866;SDS011;1441;48.886;8.728;2024-01-15T03:58:09;8.67;;;5.00;;
2866;SDS011;1441;48.886;8.728;2024-01-15T04:00:35;12.13;;;5.10;;
2866;SDS011;1441;48.886;8.728;2024-01-15T04:03:00;10.20;;;5.30;;
2866;SDS011;1441;48.886;8.728;2024-01-15T04:05:26;10.60;;;5.80;;
2866;SDS011;1441;48.886;8.728;2024-01-15T04:07:52;9.30;;;5.10;;
2866;SDS011;1441;48.886;8.728;2024-01-15T04:10:17;14.73;;;5.97;;
2866;SDS011;1441;48.886;8.728;2024-01-15T04:12:43;12.70;;;6.40;;
2866;SDS011;1441;48.886;8.728;2024-01-15T04:15:11;8.53;;;5.03;;
2866;SDS011;1441;48.886;8.728;2024-01-15T04:17:37;9.80;;;5.07;;
2866;SDS011;1441;48.886;8.728;2024-01-15T04:20:03;9.30;;;4.90;;
2866;SDS011;1441;48.886;8.728;2024-01-15T04:22:29;13.83;;;7.20;;
2866;SDS011;1441;48.886;8.728;2024-01-15T04:24:54;13.17;;;5.80;;
2866;SDS011;1441;48.886;8.728;2024-01-15T04:27:20;9.53;;;5.10;;
2866;SDS011;1441;48.886;8.728;2024-01-15T04:29:45;12.43;;;6.20;;
2866;SDS011;1441;48.886;8.728;2024-01-15T04:32:11;10.60;;;4.93;;
2866;SDS011;1441;48.886;8.728;2024-01-15T04:34:36;8.17;;;5.30;;
2866;SDS011;1441;48.886;8.728;2024-01-15T04:37:02;9.37;;;5.30;;
2866;SDS011;1441;48.886;8.728;2024-01-15T04:39:28;11.83;;;5.50;;
2866;SDS011;1441;48.886;8.728;2024-01-15T04:41:53;10.73;;;4.33;;
2866;SDS011;1441;48.886;8.728;2024-01-15T04:44:19;8.87;;;4.20;;
2866;SDS011;1441;48.886;8.728;2024-01-15T04:46:44;6.63;;;4.03;;
2866;SDS011;1441;48.886;8.728;2024-01-15T04:49:11;9.90;;;4.93;;
2866;SDS011;1441;48.886;8.728;2024-01-15T04:51:36;8.77;;;4.37;;
2866;SDS011;1441;48.886;8.728;2024-01-15T04:54:02;13.13;;;4.37;;
2866;SDS011;1441;48.886;8.728;2024-01-15T04:56:28;15.70;;;4.57;;
2866;SDS011;1441;48.886;8.728;2024-01-15T04:58:54;9.43;;;4.60;;
2866;SDS011;1441;48.886;8.728;2024-01-15T05:01:19;7.47;;;4.07;;
2866;SDS011;1441;48.886;8.728;2024-01-15T05:03:45;8.00;;;4.50;;
2866;SDS011;1441;48.886;8.728;2024-01-15T05:06:10;7.90;;;3.73;;
2866;SDS011;1441;48.886;8.728;2024-01-15T05:08:36;7.30;;;4.00;;
2866;SDS011;1441;48.886;8.728;2024-01-15T05:11:02;5.13;;;3.33;;
2866;SDS011;1441;48.886;8.728;2024-01-15T05:13:27;6.60;;;4.37;;
2866;SDS011;1441;48.886;8.728;2024-01-15T05:15:53;7.50;;;4.00;;
2866;SDS011;1441;48.886;8.728;2024-01-15T05:18:18;6.50;;;3.73;;
2866;SDS011;1441;48.886;8.728;2024-01-15T05:20:44;8.83;;;3.87;;
2866;SDS011;1441;48.886;8.728;2024-01-15T05:23:10;7.47;;;3.80;;
2866;SDS011;1441;48.886;8.728;2024-01-15T05:25:35;4.33;;;3.43;;
2866;SDS011;1441;48.886;8.728;2024-01-15T05:28:01;7.57;;;3.80;;
2866;SDS011;1441;48.886;8.728;2024-01-15T05:30:27;9.87;;;4.37;;
2866;SDS011;1441;48.886;8.728;2024-01-15T05:32:53;7.93;;;4.23;;
2866;SDS011;1441;48.886;8.728;2024-01-15T05:35:18;6.40;;;2.87;;
2866;SDS011;1441;48.886;8.728;2024-01-15T05:37:44;6.93;;;3.73;;
2866;SDS011;1441;48.886;8.728;2024-01-15T05:40:11;5.80;;;3.80;;
2866;SDS011;1441;48.886;8.728;2024-01-15T05:42:38;11.47;;;5.90;;
2866;SDS011;1441;48.886;8.728;2024-01-15T05:45:04;6.50;;;4.20;;
2866;SDS011;1441;48.886;8.728;2024-01-15T05:47:30;7.93;;;4.70;;
2866;SDS011;1441;48.886;8.728;2024-01-15T05:49:56;9.17;;;4.43;;
2866;SDS011;1441;48.886;8.728;2024-01-15T05:52:22;9.10;;;4.90;;
2866;SDS011;1441;48.886;8.728;2024-01-15T05:54:48;9.60;;;5.70;;
2866;SDS011;1441;48.886;8.728;2024-01-15T05:57:14;9.50;;;4.47;;
2866;SDS011;1441;48.886;8.728;2024-01-15T05:59:40;10.13;;;4.27;;
2866;SDS011;1441;48.886;8.728;2024-01-15T06:02:05;6.93;;;4.30;;
2866;SDS011;1441;48.886;8.728;2024-01-15T06:04:31;9.23;;;4.13;;
2866;SDS011;1441;48.886;8.728;2024-01-15T06:06:56;4.37;;;3.07;;
2866;SDS011;1441;48.886;8.728;2024-01-15T06:09:22;8.43;;;2.90;;
2866;SDS011;1441;48.886;8.728;2024-01-15T06:11:48;3.10;;;2.07;;
2866;SDS011;1441;48.886;8.728;2024-01-15T06:14:13;3.73;;;2.37;;
2866;SDS011;1441;48.886;8.728;2024-01-15T06:16:39;2.43;;;2.20;;
2866;SDS011;1441;48.886;8.728;2024-01-15T06:19:05;4.07;;;2.70;;
2866;SDS011;1441;48.886;8.728;2024-01-15T06:21:30;4.80;;;2.87;;
2866;SDS011;1441;48.886;8.728;2024-01-15T06:23:56;5.67;;;3.47;;
2866;SDS011;1441;48.886;8.728;2024-01-15T06:26:22;4.53;;;2.60;;
2866;SDS011;1441;48.886;8.728;2024-01-15T06:28:48;4.33;;;2.27;;
2866;SDS011;1441;48.886;8.728;2024-01-15T06:31:13;4.50;;;2.13;;
2866;SDS011;1441;48.886;8.728;2024-01-15T06:33:39;3.00;;;1.80;;
2866;SDS011;1441;48.886;8.728;2024-01-15T06:36:05;2.50;;;1.60;;
2866;SDS011;1441;48.886;8.728;2024-01-15T06:38:31;2.43;;;1.90;;
2866;SDS011;1441;48.886;8.728;2024-01-15T06:40:56;2.73;;;1.70;;
2866;SDS011;1441;48.886;8.728;2024-01-15T06:43:22;2.03;;;1.90;;
2866;SDS011;1441;48.886;8.728;2024-01-15T06:45:47;3.63;;;1.77;;
2866;SDS011;1441;48.886;8.728;2024-01-15T06:48:13;3.70;;;2.47;;
2866;SDS011;1441;48.886;8.728;2024-01-15T06:50:41;3.13;;;1.90;;
2866;SDS011;1441;48.886;8.728;2024-01-15T06:53:07;1.90;;;1.57;;
2866;SDS011;1441;48.886;8.728;2024-01-15T06:55:32;3.87;;;2.00;;
2866;SDS011;1441;48.886;8.728;2024-01-15T06:57:58;3.33;;;1.57;;
2866;SDS011;1441;48.886;8.728;2024-01-15T07:00:26;1.63;;;1.50;;
2866;SDS011;1441;48.886;8.728;2024-01-15T07:02:52;3.33;;;1.60;;
2866;SDS011;1441;48.886;8.728;2024-01-15T07:05:20;1.60;;;1.50;;
2866;SDS011;1441;48.886;8.728;2024-01-15T07:07:45;2.63;;;2.43;;
2866;SDS011;1441;48.886;8.728;2024-01-15T07:10:12;3.57;;;2.07;;
2866;SDS011;1441;48.886;8.728;2024-01-15T07:12:38;1.97;;;1.50;;
2866;SDS011;1441;48.886;8.728;2024-01-15T07:15:03;1.73;;;1.53;;
2866;SDS011;1441;48.886;8.728;2024-01-15T07:17:32;1.77;;;1.67;;
2866;SDS011;1441;48.886;8.728;2024-01-15T07:19:57;1.60;;;1.50;;
2866;SDS011;1441;48.886;8.728;2024-01-15T07:22:23;4.30;;;2.30;;
2866;SDS011;1441;48.886;8.728;2024-01-15T07:24:48;5.57;;;1.90;;
2866;SDS011;1441;48.886;8.728;2024-01-15T07:27:14;3.37;;;2.37;;
2866;SDS011;1441;48.886;8.728;2024-01-15T07:29:39;2.37;;;1.67;;
2866;SDS011;1441;48.886;8.728;2024-01-15T07:32:05;2.30;;;1.53;;
2866;SDS011;1441;48.886;8.728;2024-01-15T07:34:32;2.20;;;2.00;;
2866;SDS011;1441;48.886;8.728;2024-01-15T07:36:58;4.43;;;1.90;;
2866;SDS011;1441;48.886;8.728;2024-01-15T07:39:23;2.17;;;1.67;;
2866;SDS011;1441;48.886;8.728;2024-01-15T07:41:50;7.33;;;2.50;;
2866;SDS011;1441;48.886;8.728;2024-01-15T07:44:16;1.67;;;1.57;;
2866;SDS011;1441;48.886;8.728;2024-01-15T07:46:45;2.20;;;2.00;;
2866;SDS011;1441;48.886;8.728;2024-01-15T07:49:11;2.30;;;1.77;;
2866;SDS011;1441;48.886;8.728;2024-01-15T07:51:37;3.53;;;2.43;;
2866;SDS011;1441;48.886;8.728;2024-01-15T07:54:05;4.13;;;2.20;;
2866;SDS011;1441;48.886;8.728;2024-01-15T07:56:31;3.90;;;2.63;;
2866;SDS011;1441;48.886;8.728;2024-01-15T07:58:56;3.17;;;2.73;;
2866;SDS011;1441;48.886;8.728;2024-01-15T08:01:22;6.70;;;2.30;;
2866;SDS011;1441;48.886;8.728;2024-01-15T08:03:47;4.00;;;2.13;;
2866;SDS011;1441;48.886;8.728;2024-01-15T08:06:13;3.43;;;2.80;;
2866;SDS011;1441;48.886;8.728;2024-01-15T08:08:39;4.20;;;1.80;;
2866;SDS011;1441;48.886;8.728;2024-01-15T08:11:04;4.73;;;2.27;;
2866;SDS011;1441;48.886;8.728;2024-01-15T08:13:30;5.80;;;2.23;;
2866;SDS011;1441;48.886;8.728;2024-01-15T08:15:55;5.37;;;2.97;;
2866;SDS011;1441;48.886;8.728;2024-01-15T08:18:21;3.50;;;2.77;;
2866;SDS011;1441;48.886;8.728;2024-01-15T08:20:47;4.10;;;2.33;;
2866;SDS011;1441;48.886;8.728;2024-01-15T08:23:12;3.97;;;2.43;;
2866;SDS011;1441;48.886;8.728;2024-01-15T08:25:38;4.50;;;2.80;;
2866;SDS011;1441;48.886;8.728;2024-01-15T08:28:04;4.20;;;2.47;;
2866;SDS011;1441;48.886;8.728;2024-01-15T08:30:30;3.60;;;2.10;;
2866;SDS011;1441;48.886;8.728;2024-01-15T08:32:56;5.40;;;2.80;;
2866;SDS011;1441;48.886;8.728;2024-01-15T08:35:22;3.07;;;2.57;;
2866;SDS011;1441;48.886;8.728;2024-01-15T08:37:50;6.10;;;3.10;;
2866;SDS011;1441;48.886;8.728;2024-01-15T08:40:16;5.13;;;2.93;;
2866;SDS011;1441;48.886;8.728;2024-01-15T08:42:42;7.77;;;3.00;;
2866;SDS011;1441;48.886;8.728;2024-01-15T08:45:08;3.90;;;2.70;;
2866;SDS011;1441;48.886;8.728;2024-01-15T08:47:34;5.50;;;3.00;;
2866;SDS011;1441;48.886;8.728;2024-01-15T08:50:01;7.70;;;3.43;;
2866;SDS011;1441;48.886;8.728;2024-01-15T08:52:28;8.60;;;3.13;;
2866;SDS011;1441;48.886;8.728;2024-01-15T08:54:54;5.47;;;3.07;;
2866;SDS011;1441;48.886;8.728;2024-01-15T08:57:21;5.30;;;2.57;;
2866;SDS011;1441;48.886;8.728;2024-01-15T08:59:47;5.37;;;3.10;;
2866;SDS011;1441;48.886;8.728;2024-01-15T09:02:12;7.80;;;3.10;;
2866;SDS011;1441;48.886;8.728;2024-01-15T09:04:38;5.63;;;3.27;;
2866;SDS011;1441;48.886;8.728;2024-01-15T09:07:04;7.20;;;3.23;;
2866;SDS011;1441;48.886;8.728;2024-01-15T09:09:29;5.10;;;3.20;;
2866;SDS011;1441;48.886;8.728;2024-01-15T09:11:55;5.20;;;3.30;;
2866;SDS011;1441;48.886;8.728;2024-01-15T09:14:21;4.37;;;2.07;;
2866;SDS011;1441;48.886;8.728;2024-01-15T09:16:47;4.97;;;3.00;;
2866;SDS011;1441;48.886;8.728;2024-01-15T09:19:13;14.33;;;3.73;;
2866;SDS011;1441;48.886;8.728;2024-01-15T09:21:38;3.80;;;2.40;;
2866;SDS011;1441;48.886;8.728;2024-01-15T09:24:05;5.33;;;2.73;;
2866;SDS011;1441;48.886;8.728;2024-01-15T09:26:30;4.40;;;3.03;;
2866;SDS011;1441;48.886;8.728;2024-01-15T09:28:56;4.60;;;3.10;;
2866;SDS011;1441;48.886;8.728;2024-01-15T09:31:22;5.97;;;3.33;;
2866;SDS011;1441;48.886;8.728;2024-01-15T09:33:48;4.27;;;2.67;;
2866;SDS011;1441;48.886;8.728;2024-01-15T09:36:16;4.90;;;3.17;;
2866;SDS011;1441;48.886;8.728;2024-01-15T09:38:42;5.60;;;3.60;;
2866;SDS011;1441;48.886;8.728;2024-01-15T09:41:07;3.80;;;2.83;;
2866;SDS011;1441;48.886;8.728;2024-01-15T09:43:33;5.20;;;3.47;;
2866;SDS011;1441;48.886;8.728;2024-01-15T09:45:59;6.40;;;3.60;;
2866;SDS011;1441;48.886;8.728;2024-01-15T09:48:25;5.87;;;2.50;;
2866;SDS011;1441;48.886;8.728;2024-01-15T09:50:51;3.33;;;2.40;;
2866;SDS011;1441;48.886;8.728;2024-01-15T09:53:17;2.20;;;1.90;;
2866;SDS011;1441;48.886;8.728;2024-01-15T09:55:45;4.23;;;2.60;;
2866;SDS011;1441;48.886;8.728;2024-01-15T09:58:11;2.40;;;2.20;;
2866;SDS011;1441;48.886;8.728;2024-01-15T10:00:37;3.77;;;2.00;;
2866;SDS011;1441;48.886;8.728;2024-01-15T10:03:06;5.73;;;2.80;;
2866;SDS011;1441;48.886;8.728;2024-01-15T10:05:33;4.63;;;2.23;;
2866;SDS011;1441;48.886;8.728;2024-01-15T10:07:58;5.27;;;3.00;;
2866;SDS011;1441;48.886;8.728;2024-01-15T10:10:26;3.90;;;2.20;;
2866;SDS011;1441;48.886;8.728;2024-01-15T10:12:52;6.67;;;2.50;;
2866;SDS011;1441;48.886;8.728;2024-01-15T10:15:22;4.73;;;2.60;;
2866;SDS011;1441;48.886;8.728;2024-01-15T10:17:48;4.80;;;2.13;;
2866;SDS011;1441;48.886;8.728;2024-01-15T10:20:14;3.23;;;2.20;;
2866;SDS011;1441;48.886;8.728;2024-01-15T10:22:43;2.50;;;1.73;;
2866;SDS011;1441;48.886;8.728;2024-01-15T10:25:11;2.83;;;2.53;;
2866;SDS011;1441;48.886;8.728;2024-01-15T10:27:37;4.70;;;2.60;;
2866;SDS011;1441;48.886;8.728;2024-01-15T10:30:03;4.10;;;2.07;;
2866;SDS011;1441;48.886;8.728;2024-01-15T10:32:29;3.33;;;2.10;;
2866;SDS011;1441;48.886;8.728;2024-01-15T10:34:55;4.87;;;2.40;;
2866;SDS011;1441;48.886;8.728;2024-01-15T10:37:21;2.67;;;2.13;;
2866;SDS011;1441;48.886;8.728;2024-01-15T10:39:49;4.87;;;2.40;;
2866;SDS011;1441;48.886;8.728;2024-01-15T10:42:15;4.10;;;1.87;;
2866;SDS011;1441;48.886;8.728;2024-01-15T10:44:42;2.10;;;2.00;;
2866;SDS011;1441;48.886;8.728;2024-01-15T10:47:08;1.80;;;1.70;;
2866;SDS011;1441;48.886;8.728;2024-01-15T10:49:34;2.50;;;2.00;;
2866;SDS011;1441;48.886;8.728;2024-01-15T10:52:00;4.10;;;2.30;;
2866;SDS011;1441;48.886;8.728;2024-01-15T10:54:27;4.53;;;2.57;;
2866;SDS011;1441;48.886;8.728;2024-01-15T10:56:53;3.40;;;2.50;;
2866;SDS011;1441;48.886;8.728;2024-01-15T10:59:20;3.20;;;2.63;;
2866;SDS011;1441;48.886;8.728;2024-01-15T11:01:49;2.23;;;2.03;;
2866;SDS011;1441;48.886;8.728;2024-01-15T11:04:19;2.03;;;1.93;;
2866;SDS011;1441;48.886;8.728;2024-01-15T11:06:50;3.43;;;1.77;;
2866;SDS011;1441;48.886;8.728;2024-01-15T11:09:18;3.20;;;1.97;;
2866;SDS011;1441;48.886;8.728;2024-01-15T11:11:44;2.27;;;2.10;;
2866;SDS011;1441;48.886;8.728;2024-01-15T11:17:16;2.73;;;1.80;;
2866;SDS011;1441;48.886;8.728;2024-01-15T11:19:44;2.67;;;1.73;;
2866;SDS011;1441;48.886;8.728;2024-01-15T11:24:55;2.53;;;1.57;;
2866;SDS011;1441;48.886;8.728;2024-01-15T11:30:10;3.00;;;1.77;;
2866;SDS011;1441;48.886;8.728;2024-01-15T11:32:36;3.90;;;2.57;;
2866;SDS011;1441;48.886;8.728;2024-01-15T11:35:06;2.70;;;2.07;;
2866;SDS011;1441;48.886;8.728;2024-01-15T11:40:21;2.20;;;1.90;;
2866;SDS011;1441;48.886;8.728;2024-01-15T11:43:03;2.63;;;1.47;;
2866;SDS011;1441;48.886;8.728;2024-01-15T11:45:29;2.93;;;1.87;;
2866;SDS011;1441;48.886;8.728;2024-01-15T11:50:27;2.40;;;1.73;;
2866;SDS011;1441;48.886;8.728;2024-01-15T11:53:03;8.30;;;2.10;;
2866;SDS011;1441;48.886;8.728;2024-01-15T11:55:35;3.17;;;2.20;;
2866;SDS011;1441;48.886;8.728;2024-01-15T11:58:05;3.20;;;2.20;;
2866;SDS011;1441;48.886;8.728;2024-01-15T12:00:34;2.80;;;1.87;;
2866;SDS011;1441;48.886;8.728;2024-01-15T12:03:04;2.63;;;1.80;;
2866;SDS011;1441;48.886;8.728;2024-01-15T12:05:30;2.90;;;1.83;;
2866;SDS011;1441;48.886;8.728;2024-01-15T12:07:56;4.83;;;2.30;;
2866;SDS011;1441;48.886;8.728;2024-01-15T12:10:22;4.40;;;2.57;;
2866;SDS011;1441;48.886;8.728;2024-01-15T12:15:45;3.23;;;2.00;;
2866;SDS011;1441;48.886;8.728;2024-01-15T12:18:12;1.57;;;1.27;;
2866;SDS011;1441;48.886;8.728;2024-01-15T12:20:39;2.63;;;1.90;;
2866;SDS011;1441;48.886;8.728;2024-01-15T12:23:05;2.47;;;1.60;;
2866;SDS011;1441;48.886;8.728;2024-01-15T12:25:31;2.07;;;1.87;;
2866;SDS011;1441;48.886;8.728;2024-01-15T12:27:58;2.53;;;1.93;;
2866;SDS011;1441;48.886;8.728;2024-01-15T12:30:28;3.00;;;1.90;;
2866;SDS011;1441;48.886;8.728;2024-01-15T12:32:56;3.20;;;2.20;;
2866;SDS011;1441;48.886;8.728;2024-01-15T12:35:23;2.50;;;1.90;;
2866;SDS011;1441;48.886;8.728;2024-01-15T12:37:49;2.30;;;2.10;;
2866;SDS011;1441;48.886;8.728;2024-01-15T12:40:18;2.70;;;2.50;;
2866;SDS011;1441;48.886;8.728;2024-01-15T12:42:44;5.70;;;2.10;;
2866;SDS011;1441;48.886;8.728;2024-01-15T12:45:10;2.57;;;2.10;;
2866;SDS011;1441;48.886;8.728;2024-01-15T12:47:37;2.10;;;1.90;;
2866;SDS011;1441;48.886;8.728;2024-01-15T12:50:10;3.97;;;2.60;;
2866;SDS011;1441;48.886;8.728;2024-01-15T12:52:37;3.13;;;2.23;;
2866;SDS011;1441;48.886;8.728;2024-01-15T12:55:05;2.60;;;2.40;;
2866;SDS011;1441;48.886;8.728;2024-01-15T12:57:31;4.73;;;2.27;;
2866;SDS011;1441;48.886;8.728;2024-01-15T12:59:57;3.13;;;2.27;;
2866;SDS011;1441;48.886;8.728;2024-01-15T13:02:23;3.53;;;2.60;;
2866;SDS011;1441;48.886;8.728;2024-01-15T13:04:49;5.47;;;3.40;;
2866;SDS011;1441;48.886;8.728;2024-01-15T13:07:14;5.40;;;3.43;;
2866;SDS011;1441;48.886;8.728;2024-01-15T13:09:40;5.53;;;3.20;;
2866;SDS011;1441;48.886;8.728;2024-01-15T13:12:05;3.57;;;3.10;;
2866;SDS011;1441;48.886;8.728;2024-01-15T13:14:31;7.07;;;4.50;;
2866;SDS011;1441;48.886;8.728;2024-01-15T13:16:58;4.53;;;3.70;;
2866;SDS011;1441;48.886;8.728;2024-01-15T13:19:24;5.83;;;4.13;;
2866;SDS011;1441;48.886;8.728;2024-01-15T13:21:50;5.67;;;3.73;;
2866;SDS011;1441;48.886;8.728;2024-01-15T13:24:16;6.80;;;3.90;;
2866;SDS011;1441;48.886;8.728;2024-01-15T13:26:42;10.77;;;4.20;;
2866;SDS011;1441;48.886;8.728;2024-01-15T13:29:08;7.10;;;3.80;;
2866;SDS011;1441;48.886;8.728;2024-01-15T13:31:34;6.87;;;4.00;;
2866;SDS011;1441;48.886;8.728;2024-01-15T13:33:59;6.47;;;3.50;;
2866;SDS011;1441;48.886;8.728;2024-01-15T13:36:25;7.73;;;4.33;;
2866;SDS011;1441;48.886;8.728;2024-01-15T13:38:52;8.83;;;4.00;;
2866;SDS011;1441;48.886;8.728;2024-01-15T13:41:18;5.90;;;4.10;;
2866;SDS011;1441;48.886;8.728;2024-01-15T13:43:50;4.20;;;3.57;;
2866;SDS011;1441;48.886;8.728;2024-01-15T13:46:17;4.80;;;3.67;;
2866;SDS011;1441;48.886;8.728;2024-01-15T13:48:43;5.77;;;4.30;;
2866;SDS011;1441;48.886;8.728;2024-01-15T13:51:09;5.90;;;4.60;;
2866;SDS011;1441;48.886;8.728;2024-01-15T13:53:37;6.80;;;5.20;;
2866;SDS011;1441;48.886;8.728;2024-01-15T13:56:03;10.00;;;5.40;;
2866;SDS011;1441;48.886;8.728;2024-01-15T13:58:29;7.50;;;4.73;;
2866;SDS011;1441;48.886;8.728;2024-01-15T14:00:55;7.10;;;4.87;;
2866;SDS011;1441;48.886;8.728;2024-01-15T14:03:21;4.70;;;4.20;;
2866;SDS011;1441;48.886;8.728;2024-01-15T14:05:47;6.80;;;4.73;;
2866;SDS011;1441;48.886;8.728;2024-01-15T14:08:12;6.70;;;4.90;;
2866;SDS011;1441;48.886;8.728;2024-01-15T14:10:38;7.60;;;5.23;;
2866;SDS011;1441;48.886;8.728;2024-01-15T14:13:04;7.50;;;4.97;;
2866;SDS011;1441;48.886;8.728;2024-01-15T14:15:29;7.93;;;4.80;;
2866;SDS011;1441;48.886;8.728;2024-01-15T14:17:55;7.20;;;4.97;;
2866;SDS011;1441;48.886;8.728;2024-01-15T14:20:20;7.87;;;5.90;;
2866;SDS011;1441;48.886;8.728;2024-01-15T14:22:46;8.13;;;5.23;;
2866;SDS011;1441;48.886;8.728;2024-01-15T14:25:12;9.80;;;4.97;;
2866;SDS011;1441;48.886;8.728;2024-01-15T14:27:38;9.30;;;5.20;;
2866;SDS011;1441;48.886;8.728;2024-01-15T14:30:04;8.30;;;4.90;;
2866;SDS011;1441;48.886;8.728;2024-01-15T14:32:31;7.00;;;5.53;;
2866;SDS011;1441;48.886;8.728;2024-01-15T14:34:56;8.00;;;5.33;;
2866;SDS011;1441;48.886;8.728;2024-01-15T14:37:22;8.10;;;5.80;;
2866;SDS011;1441;48.886;8.728;2024-01-15T14:39:47;8.43;;;5.80;;
2866;SDS011;1441;48.886;8.728;2024-01-15T14:42:13;10.23;;;5.90;;
2866;SDS011;1441;48.886;8.728;2024-01-15T14:44:39;6.63;;;4.70;;
2866;SDS011;1441;48.886;8.728;2024-01-15T14:47:06;10.30;;;5.00;;
2866;SDS011;1441;48.886;8.728;2024-01-15T14:49:32;8.10;;;5.30;;
2866;SDS011;1441;48.886;8.728;2024-01-15T14:51:58;7.33;;;5.13;;
2866;SDS011;1441;48.886;8.728;2024-01-15T14:54:24;8.73;;;5.43;;
2866;SDS011;1441;48.886;8.728;2024-01-15T14:56:50;10.70;;;6.00;;
2866;SDS011;1441;48.886;8.728;2024-01-15T14:59:16;8.07;;;5.10;;
2866;SDS011;1441;48.886;8.728;2024-01-15T15:01:42;7.27;;;5.40;;
2866;SDS011;1441;48.886;8.728;2024-01-15T15:04:07;9.90;;;5.00;;
2866;SDS011;1441;48.886;8.728;2024-01-15T15:06:33;7.30;;;4.60;;
2866;SDS011;1441;48.886;8.728;2024-01-15T15:08:59;9.70;;;5.10;;
2866;SDS011;1441;48.886;8.728;2024-01-15T15:11:25;6.90;;;5.47;;
2866;SDS011;1441;48.886;8.728;2024-01-15T15:13:51;7.73;;;5.30;;
2866;SDS011;1441;48.886;8.728;2024-01-15T15:16:17;8.70;;;4.93;;
2866;SDS011;1441;48.886;8.728;2024-01-15T15:18:43;7.13;;;5.37;;
2866;SDS011;1441;48.886;8.728;2024-01-15T15:21:09;6.73;;;4.83;;